sensor_id;sensor_type;location;lat;lon;timestamp;pressure;altitude;pressure_sealevel;temperature;humidity
16194;BME280;8204;53.582;10.080;2022-08-05T00:00:38;98798.47;;;21.91;100.00
16194;BME280;8204;53.582;10.080;2022-08-05T00:03:05;98877.19;;;21.88;100.00
16194;BME280;8204;53.582;10.080;2022-08-05T00:05:31;98900.66;;;21.86;100.00
16194;BME280;8204;53.582;10.080;2022-08-05T00:08:00;98911.03;;;21.93;100.00
16194;BME280;8204;53.582;10.080;2022-08-05T00:10:27;98956.38;;;21.93;100.00
16194;BME280;8204;53.582;10.080;2022-08-05T00:12:53;98988.13;;;21.89;100.00
16194;BME280;8204;53.582;10.080;2022-08-05T00:15:20;98996.94;;;21.90;100.00
16194;BME280;8204;53.582;10.080;2022-08-05T00:17:46;99020.69;;;21.86;100.00
16194;BME280;8204;53.582;10.080;2022-08-05T00:20:13;99037.22;;;21.88;100.00
16194;BME280;8204;53.582;10.080;2022-08-05T00:22:39;99006.81;;;21.84;100.00
16194;BME280;8204;53.582;10.080;2022-08-05T00:25:07;99056.72;;;21.79;100.00
16194;BME280;8204;53.582;10.080;2022-08-05T00:27:33;99062.88;;;21.69;100.00
16194;BME280;8204;53.582;10.080;2022-08-05T00:30:00;99102.63;;;21.61;100.00
16194;BME280;8204;53.582;10.080;2022-08-05T00:32:26;99107.69;;;21.57;100.00
16194;BME280;8204;53.582;10.080;2022-08-05T00:34:53;99157.25;;;21.53;100.00
16194;BME280;8204;53.582;10.080;2022-08-05T00:37:19;99235.59;;;21.47;100.00
16194;BME280;8204;53.582;10.080;2022-08-05T00:39:46;99257.97;;;21.41;100.00
16194;BME280;8204;53.582;10.080;2022-08-05T00:42:13;99255.81;;;21.33;100.00
16194;BME280;8204;53.582;10.080;2022-08-05T00:44:41;99293.66;;;21.30;100.00
16194;BME280;8204;53.582;10.080;2022-08-05T00:47:07;99314.94;;;21.26;100.00
16194;BME280;8204;53.582;10.080;2022-08-05T00:49:34;99309.38;;;21.22;100.00
16194;BME280;8204;53.582;10.080;2022-08-05T00:52:00;99304.56;;;21.24;100.00
16194;BME280;8204;53.582;10.080;2022-08-05T00:54:26;99364.00;;;21.25;100.00
16194;BME280;8204;53.582;10.080;2022-08-05T00:56:53;99455.00;;;21.07;100.00
16194;BME280;8204;53.582;10.080;2022-08-05T00:59:20;99431.03;;;21.07;100.00
16194;BME280;8204;53.582;10.080;2022-08-05T01:01:47;99527.19;;;21.05;100.00
16194;BME280;8204;53.582;10.080;2022-08-05T01:04:13;99579.31;;;20.96;100.00
16194;BME280;8204;53.582;10.080;2022-08-05T01:06:40;99533.78;;;20.93;100.00
16194;BME280;8204;53.582;10.080;2022-08-05T01:09:06;99499.66;;;20.90;100.00
16194;BME280;8204;53.582;10.080;2022-08-05T01:11:34;99545.19;;;20.88;100.00
16194;BME280;8204;53.582;10.080;2022-08-05T01:14:05;99578.50;;;20.91;100.00
16194;BME280;8204;53.582;10.080;2022-08-05T01:16:46;99593.41;;;20.92;100.00
16194;BME280;8204;53.582;10.080;2022-08-05T01:19:26;99622.19;;;20.95;100.00
16194;BME280;8204;53.582;10.080;2022-08-05T01:22:14;99622.72;;;20.92;100.00
16194;BME280;8204;53.582;10.080;2022-08-05T01:24:51;99631.00;;;20.95;100.00
16194;BME280;8204;53.582;10.080;2022-08-05T01:30:18;99682.41;;;20.96;100.00
16194;BME280;8204;53.582;10.080;2022-08-05T01:32:47;99664.28;;;20.93;100.00
16194;BME280;8204;53.582;10.080;2022-08-05T01:35:16;99671.16;;;20.89;100.00
16194;BME280;8204;53.582;10.080;2022-08-05T01:37:47;99622.34;;;20.83;100.00
16194;BME280;8204;53.582;10.080;2022-08-05T01:40:16;99618.88;;;20.83;100.00
16194;BME280;8204;53.582;10.080;2022-08-05T01:42:45;99577.34;;;20.82;100.00
16194;BME280;8204;53.582;10.080;2022-08-05T01:45:14;99623.47;;;20.87;100.00
16194;BME280;8204;53.582;10.080;2022-08-05T01:47:43;99635.47;;;20.90;100.00
16194;BME280;8204;53.582;10.080;2022-08-05T01:50:15;99624.06;;;20.94;100.00
16194;BME280;8204;53.582;10.080;2022-08-05T01:52:44;99637.69;;;20.98;100.00
16194;BME280;8204;53.582;10.080;2022-08-05T01:55:13;99632.66;;;21.01;100.00
16194;BME280;8204;53.582;10.080;2022-08-05T01:57:44;99627.13;;;21.08;100.00
16194;BME280;8204;53.582;10.080;2022-08-05T02:00:12;99666.06;;;21.14;100.00
16194;BME280;8204;53.582;10.080;2022-08-05T02:02:44;99687.38;;;21.14;100.00
16194;BME280;8204;53.582;10.080;2022-08-05T02:05:14;99688.50;;;21.18;100.00
16194;BME280;8204;53.582;10.080;2022-08-05T02:07:41;99693.53;;;21.14;100.00
16194;BME280;8204;53.582;10.080;2022-08-05T02:10:08;99679.66;;;21.12;100.00
16194;BME280;8204;53.582;10.080;2022-08-05T02:12:37;99694.28;;;21.10;100.00
16194;BME280;8204;53.582;10.080;2022-08-05T02:15:10;99711.84;;;21.06;100.00
16194;BME280;8204;53.582;10.080;2022-08-05T02:17:43;99687.09;;;21.10;100.00
16194;BME280;8204;53.582;10.080;2022-08-05T02:20:18;99746.81;;;21.14;100.00
16194;BME280;8204;53.582;10.080;2022-08-05T02:22:47;99709.22;;;21.11;100.00
16194;BME280;8204;53.582;10.080;2022-08-05T02:25:17;99739.28;;;21.06;100.00
16194;BME280;8204;53.582;10.080;2022-08-05T02:27:44;99690.00;;;21.09;100.00
16194;BME280;8204;53.582;10.080;2022-08-05T02:30:14;99729.47;;;21.12;100.00
16194;BME280;8204;53.582;10.080;2022-08-05T02:32:42;99734.25;;;21.10;100.00
16194;BME280;8204;53.582;10.080;2022-08-05T02:35:15;99750.72;;;21.07;100.00
16194;BME280;8204;53.582;10.080;2022-08-05T02:37:45;99792.25;;;21.03;100.00
16194;BME280;8204;53.582;10.080;2022-08-05T02:40:13;99777.31;;;21.02;100.00
16194;BME280;8204;53.582;10.080;2022-08-05T02:42:41;99763.72;;;21.03;100.00
16194;BME280;8204;53.582;10.080;2022-08-05T02:45:10;99744.34;;;21.08;100.00
16194;BME280;8204;53.582;10.080;2022-08-05T02:47:37;99830.16;;;21.10;100.00
16194;BME280;8204;53.582;10.080;2022-08-05T02:50:06;99842.97;;;21.13;100.00
16194;BME280;8204;53.582;10.080;2022-08-05T02:52:35;99623.13;;;21.10;100.00
16194;BME280;8204;53.582;10.080;2022-08-05T02:55:04;99326.66;;;21.15;100.00
16194;BME280;8204;53.582;10.080;2022-08-05T02:57:32;99088.19;;;21.12;100.00
16194;BME280;8204;53.582;10.080;2022-08-05T03:00:00;98964.34;;;21.05;100.00
16194;BME280;8204;53.582;10.080;2022-08-05T03:02:28;98904.97;;;20.99;100.00
16194;BME280;8204;53.582;10.080;2022-08-05T03:04:57;98892.69;;;20.98;100.00
16194;BME280;8204;53.582;10.080;2022-08-05T03:07:26;98921.72;;;20.95;100.00
16194;BME280;8204;53.582;10.080;2022-08-05T03:09:54;99004.31;;;20.90;100.00
16194;BME280;8204;53.582;10.080;2022-08-05T03:12:28;98947.84;;;20.88;100.00
16194;BME280;8204;53.582;10.080;2022-08-05T03:14:55;98875.44;;;20.86;100.00
16194;BME280;8204;53.582;10.080;2022-08-05T03:17:21;98928.16;;;20.79;100.00
16194;BME280;8204;53.582;10.080;2022-08-05T03:19:48;98926.78;;;20.71;100.00
16194;BME280;8204;53.582;10.080;2022-08-05T03:22:14;98936.66;;;20.66;100.00
16194;BME280;8204;53.582;10.080;2022-08-05T03:24:41;98958.75;;;20.61;100.00
16194;BME280;8204;53.582;10.080;2022-08-05T03:27:10;98993.59;;;20.55;100.00
16194;BME280;8204;53.582;10.080;2022-08-05T03:29:38;99026.59;;;20.54;100.00
16194;BME280;8204;53.582;10.080;2022-08-05T03:32:06;98962.19;;;20.57;100.00
16194;BME280;8204;53.582;10.080;2022-08-05T03:34:33;98985.59;;;20.55;100.00
16194;BME280;8204;53.582;10.080;2022-08-05T03:37:00;99065.72;;;20.49;100.00
16194;BME280;8204;53.582;10.080;2022-08-05T03:39:28;99023.09;;;20.34;100.00
16194;BME280;8204;53.582;10.080;2022-08-05T03:41:54;99015.66;;;20.31;100.00
16194;BME280;8204;53.582;10.080;2022-08-05T03:44:23;99005.25;;;20.19;100.00
16194;BME280;8204;53.582;10.080;2022-08-05T03:46:49;98973.03;;;20.16;100.00
16194;BME280;8204;53.582;10.080;2022-08-05T03:49:15;98959.97;;;20.09;100.00
16194;BME280;8204;53.582;10.080;2022-08-05T03:51:44;98919.28;;;20.04;100.00
16194;BME280;8204;53.582;10.080;2022-08-05T03:54:19;98835.00;;;20.04;100.00
16194;BME280;8204;53.582;10.080;2022-08-05T03:56:47;98817.16;;;20.05;100.00
16194;BME280;8204;53.582;10.080;2022-08-05T03:59:17;98830.72;;;20.03;100.00
16194;BME280;8204;53.582;10.080;2022-08-05T04:01:48;98847.75;;;20.02;100.00
16194;BME280;8204;53.582;10.080;2022-08-05T04:04:17;98838.19;;;20.01;100.00
16194;BME280;8204;53.582;10.080;2022-08-05T04:06:45;98863.69;;;19.97;100.00
16194;BME280;8204;53.582;10.080;2022-08-05T04:09:13;98889.75;;;19.95;100.00
16194;BME280;8204;53.582;10.080;2022-08-05T04:11:40;98843.19;;;19.93;100.00
16194;BME280;8204;53.582;10.080;2022-08-05T04:14:07;98872.69;;;19.91;100.00
16194;BME280;8204;53.582;10.080;2022-08-05T04:16:34;98883.59;;;19.90;100.00
16194;BME280;8204;53.582;10.080;2022-08-05T04:19:02;98837.34;;;19.91;100.00
16194;BME280;8204;53.582;10.080;2022-08-05T04:21:29;98805.44;;;19.91;100.00
16194;BME280;8204;53.582;10.080;2022-08-05T04:23:56;98841.56;;;19.92;100.00
16194;BME280;8204;53.582;10.080;2022-08-05T04:26:23;98864.19;;;19.89;100.00
16194;BME280;8204;53.582;10.080;2022-08-05T04:28:49;98836.53;;;19.90;100.00
16194;BME280;8204;53.582;10.080;2022-08-05T04:31:16;98800.38;;;19.89;100.00
16194;BME280;8204;53.582;10.080;2022-08-05T04:33:45;98838.13;;;19.86;100.00
16194;BME280;8204;53.582;10.080;2022-08-05T04:36:13;98813.16;;;19.87;100.00
16194;BME280;8204;53.582;10.080;2022-08-05T04:38:41;98845.56;;;19.84;100.00
16194;BME280;8204;53.582;10.080;2022-08-05T04:41:07;98821.13;;;19.87;100.00
16194;BME280;8204;53.582;10.080;2022-08-05T04:43:33;98832.53;;;19.88;100.00
16194;BME280;8204;53.582;10.080;2022-08-05T04:46:00;98834.16;;;19.89;100.00
16194;BME280;8204;53.582;10.080;2022-08-05T04:48:29;98854.59;;;19.83;100.00
16194;BME280;8204;53.582;10.080;2022-08-05T04:50:55;98887.03;;;19.80;100.00
16194;BME280;8204;53.582;10.080;2022-08-05T04:53:23;98884.91;;;19.82;100.00
16194;BME280;8204;53.582;10.080;2022-08-05T04:55:49;98884.63;;;19.79;100.00
16194;BME280;8204;53.582;10.080;2022-08-05T04:58:17;98862.56;;;19.78;100.00
16194;BME280;8204;53.582;10.080;2022-08-05T05:00:43;98848.72;;;19.77;100.00
16194;BME280;8204;53.582;10.080;2022-08-05T05:03:10;98903.72;;;19.61;100.00
16194;BME280;8204;53.582;10.080;2022-08-05T05:05:37;98872.34;;;19.58;100.00
16194;BME280;8204;53.582;10.080;2022-08-05T05:08:05;98863.34;;;19.59;100.00
16194;BME280;8204;53.582;10.080;2022-08-05T05:10:37;98868.09;;;19.52;100.00
16194;BME280;8204;53.582;10.080;2022-08-05T05:13:06;98907.41;;;19.50;100.00
16194;BME280;8204;53.582;10.080;2022-08-05T05:15:32;98919.06;;;19.44;100.00
16194;BME280;8204;53.582;10.080;2022-08-05T05:17:59;98858.25;;;19.48;100.00
16194;BME280;8204;53.582;10.080;2022-08-05T05:20:25;98844.13;;;19.47;100.00
16194;BME280;8204;53.582;10.080;2022-08-05T05:22:52;98796.34;;;19.52;100.00
16194;BME280;8204;53.582;10.080;2022-08-05T05:25:18;98782.53;;;19.55;100.00
16194;BME280;8204;53.582;10.080;2022-08-05T05:27:46;98841.78;;;19.56;100.00
16194;BME280;8204;53.582;10.080;2022-08-05T05:30:13;98803.50;;;19.57;100.00
16194;BME280;8204;53.582;10.080;2022-08-05T05:32:39;98780.13;;;19.59;100.00
16194;BME280;8204;53.582;10.080;2022-08-05T05:35:06;98770.31;;;19.64;100.00
16194;BME280;8204;53.582;10.080;2022-08-05T05:37:33;98787.88;;;19.70;100.00
16194;BME280;8204;53.582;10.080;2022-08-05T05:39:59;98867.59;;;19.70;100.00
16194;BME280;8204;53.582;10.080;2022-08-05T05:42:26;98855.66;;;19.73;100.00
16194;BME280;8204;53.582;10.080;2022-08-05T05:44:53;98851.66;;;19.75;100.00
16194;BME280;8204;53.582;10.080;2022-08-05T05:47:20;98867.63;;;19.75;100.00
16194;BME280;8204;53.582;10.080;2022-08-05T05:49:46;98872.38;;;19.73;100.00
16194;BME280;8204;53.582;10.080;2022-08-05T05:52:13;98831.19;;;19.76;100.00
16194;BME280;8204;53.582;10.080;2022-08-05T05:54:39;98867.88;;;19.74;100.00
16194;BME280;8204;53.582;10.080;2022-08-05T05:57:05;98922.09;;;19.73;100.00
16194;BME280;8204;53.582;10.080;2022-08-05T05:59:32;98896.28;;;19.68;100.00
16194;BME280;8204;53.582;10.080;2022-08-05T06:02:00;98880.88;;;19.65;100.00
16194;BME280;8204;53.582;10.080;2022-08-05T06:04:26;98931.13;;;19.67;100.00
16194;BME280;8204;53.582;10.080;2022-08-05T06:06:52;98997.00;;;19.65;100.00
16194;BME280;8204;53.582;10.080;2022-08-05T06:09:19;98953.72;;;19.69;100.00
16194;BME280;8204;53.582;10.080;2022-08-05T06:11:45;98964.63;;;19.73;100.00
16194;BME280;8204;53.582;10.080;2022-08-05T06:14:12;99005.00;;;19.70;100.00
16194;BME280;8204;53.582;10.080;2022-08-05T06:16:38;98993.31;;;19.71;100.00
16194;BME280;8204;53.582;10.080;2022-08-05T06:19:06;98943.34;;;19.73;100.00
16194;BME280;8204;53.582;10.080;2022-08-05T06:21:32;98914.69;;;19.79;100.00
16194;BME280;8204;53.582;10.080;2022-08-05T06:23:59;98934.88;;;19.80;100.00
16194;BME280;8204;53.582;10.080;2022-08-05T06:26:25;98891.31;;;19.81;100.00
16194;BME280;8204;53.582;10.080;2022-08-05T06:28:51;98846.38;;;19.85;100.00
16194;BME280;8204;53.582;10.080;2022-08-05T06:31:18;98787.63;;;19.86;100.00
16194;BME280;8204;53.582;10.080;2022-08-05T06:33:44;98837.06;;;19.87;100.00
16194;BME280;8204;53.582;10.080;2022-08-05T06:36:12;98875.66;;;19.95;100.00
16194;BME280;8204;53.582;10.080;2022-08-05T06:38:39;98990.53;;;19.97;100.00
16194;BME280;8204;53.582;10.080;2022-08-05T06:41:05;98937.09;;;19.98;100.00
16194;BME280;8204;53.582;10.080;2022-08-05T06:43:32;98860.25;;;19.97;100.00
16194;BME280;8204;53.582;10.080;2022-08-05T06:45:59;98873.53;;;20.02;100.00
16194;BME280;8204;53.582;10.080;2022-08-05T06:48:25;98965.28;;;20.04;100.00
16194;BME280;8204;53.582;10.080;2022-08-05T06:50:51;99029.66;;;20.06;100.00
16194;BME280;8204;53.582;10.080;2022-08-05T06:53:19;99062.09;;;20.03;100.00
16194;BME280;8204;53.582;10.080;2022-08-05T06:55:45;99007.34;;;20.07;100.00
16194;BME280;8204;53.582;10.080;2022-08-05T06:58:12;98976.72;;;20.05;100.00
16194;BME280;8204;53.582;10.080;2022-08-05T07:00:38;98899.34;;;20.11;100.00
16194;BME280;8204;53.582;10.080;2022-08-05T07:03:05;98940.34;;;20.20;100.00
16194;BME280;8204;53.582;10.080;2022-08-05T07:05:31;99062.44;;;20.27;100.00
16194;BME280;8204;53.582;10.080;2022-08-05T07:07:57;99069.94;;;20.35;100.00
16194;BME280;8204;53.582;10.080;2022-08-05T07:10:25;99032.97;;;20.38;100.00
16194;BME280;8204;53.582;10.080;2022-08-05T07:12:52;99083.53;;;20.43;100.00
16194;BME280;8204;53.582;10.080;2022-08-05T07:15:36;99153.81;;;20.47;100.00
16194;BME280;8204;53.582;10.080;2022-08-05T07:18:20;99110.41;;;20.52;100.00
16194;BME280;8204;53.582;10.080;2022-08-05T07:20:46;99165.53;;;20.56;100.00
16194;BME280;8204;53.582;10.080;2022-08-05T09:19:43;99071.25;;;20.27;100.00
16194;BME280;8204;53.582;10.080;2022-08-05T09:22:10;99085.31;;;20.23;100.00
16194;BME280;8204;53.582;10.080;2022-08-05T09:24:36;99098.34;;;20.19;100.00
16194;BME280;8204;53.582;10.080;2022-08-05T09:27:07;99068.03;;;20.20;100.00
16194;BME280;8204;53.582;10.080;2022-08-05T09:29:38;99116.97;;;20.19;100.00
16194;BME280;8204;53.582;10.080;2022-08-05T09:32:08;99131.53;;;20.12;100.00
16194;BME280;8204;53.582;10.080;2022-08-05T09:34:47;99087.69;;;20.14;100.00
16194;BME280;8204;53.582;10.080;2022-08-05T09:37:18;99115.84;;;20.15;100.00
16194;BME280;8204;53.582;10.080;2022-08-05T09:39:45;99140.88;;;20.14;100.00
16194;BME280;8204;53.582;10.080;2022-08-05T09:42:12;99124.66;;;20.16;100.00
16194;BME280;8204;53.582;10.080;2022-08-05T09:44:42;99095.94;;;20.18;100.00
16194;BME280;8204;53.582;10.080;2022-08-05T09:47:11;99039.81;;;20.19;100.00
16194;BME280;8204;53.582;10.080;2022-08-05T09:49:44;99189.06;;;20.23;100.00
16194;BME280;8204;53.582;10.080;2022-08-05T09:52:20;99226.03;;;20.24;100.00
16194;BME280;8204;53.582;10.080;2022-08-05T09:54:54;99232.41;;;20.23;100.00
16194;BME280;8204;53.582;10.080;2022-08-05T09:57:31;99173.38;;;20.26;100.00
16194;BME280;8204;53.582;10.080;2022-08-05T09:59:59;99193.06;;;20.25;100.00
16194;BME280;8204;53.582;10.080;2022-08-05T10:02:30;99199.19;;;20.26;100.00
16194;BME280;8204;53.582;10.080;2022-08-05T10:05:03;99206.38;;;20.25;100.00
16194;BME280;8204;53.582;10.080;2022-08-05T10:07:47;99264.88;;;20.20;100.00
16194;BME280;8204;53.582;10.080;2022-08-05T10:10:14;99065.66;;;20.24;100.00
16194;BME280;8204;53.582;10.080;2022-08-05T10:12:43;99119.91;;;20.28;100.00
16194;BME280;8204;53.582;10.080;2022-08-05T10:15:14;99243.63;;;20.30;100.00
16194;BME280;8204;53.582;10.080;2022-08-05T10:18:01;99341.53;;;20.28;100.00
16194;BME280;8204;53.582;10.080;2022-08-05T10:20:30;99376.63;;;20.25;100.00
16194;BME280;8204;53.582;10.080;2022-08-05T10:22:59;99347.38;;;20.25;100.00
16194;BME280;8204;53.582;10.080;2022-08-05T10:25:26;99378.78;;;20.28;100.00
16194;BME280;8204;53.582;10.080;2022-08-05T10:27:52;99369.44;;;20.26;100.00
16194;BME280;8204;53.582;10.080;2022-08-05T10:30:20;99253.97;;;20.22;100.00
16194;BME280;8204;53.582;10.080;2022-08-05T10:32:47;99287.22;;;20.24;100.00
16194;BME280;8204;53.582;10.080;2022-08-05T10:35:14;99306.63;;;20.20;100.00
16194;BME280;8204;53.582;10.080;2022-08-05T10:37:41;99327.59;;;20.16;100.00
16194;BME280;8204;53.582;10.080;2022-08-05T10:40:18;99178.13;;;20.19;100.00
16194;BME280;8204;53.582;10.080;2022-08-05T10:42:47;99200.47;;;20.18;100.00
16194;BME280;8204;53.582;10.080;2022-08-05T10:45:24;99138.75;;;20.21;100.00
16194;BME280;8204;53.582;10.080;2022-08-05T10:47:51;99155.28;;;20.23;100.00
16194;BME280;8204;53.582;10.080;2022-08-05T10:50:18;99133.22;;;20.28;100.00
16194;BME280;8204;53.582;10.080;2022-08-05T10:52:46;99116.97;;;20.24;100.00
16194;BME280;8204;53.582;10.080;2022-08-05T10:55:20;99164.84;;;20.19;100.00
16194;BME280;8204;53.582;10.080;2022-08-05T10:57:47;99104.16;;;20.16;100.00
16194;BME280;8204;53.582;10.080;2022-08-05T11:00:14;99074.59;;;20.08;100.00
16194;BME280;8204;53.582;10.080;2022-08-05T11:03:10;99086.03;;;20.08;100.00
16194;BME280;8204;53.582;10.080;2022-08-05T11:05:38;99107.28;;;20.03;100.00
16194;BME280;8204;53.582;10.080;2022-08-05T11:08:06;99108.88;;;19.99;100.00
16194;BME280;8204;53.582;10.080;2022-08-05T11:10:35;99091.31;;;19.98;100.00
16194;BME280;8204;53.582;10.080;2022-08-05T11:13:03;99269.38;;;19.88;100.00
16194;BME280;8204;53.582;10.080;2022-08-05T11:15:32;99194.38;;;19.86;100.00
16194;BME280;8204;53.582;10.080;2022-08-05T11:18:07;99154.19;;;19.78;100.00
16194;BME280;8204;53.582;10.080;2022-08-05T11:20:47;99043.81;;;19.76;100.00
16194;BME280;8204;53.582;10.080;2022-08-05T11:23:29;99030.31;;;19.77;100.00
16194;BME280;8204;53.582;10.080;2022-08-05T11:26:02;99019.41;;;19.78;100.00
16194;BME280;8204;53.582;10.080;2022-08-05T11:28:43;99001.84;;;19.73;100.00
16194;BME280;8204;53.582;10.080;2022-08-05T11:31:17;99003.44;;;19.74;100.00
16194;BME280;8204;53.582;10.080;2022-08-05T11:33:53;99020.69;;;19.71;100.00
16194;BME280;8204;53.582;10.080;2022-08-05T11:36:21;99014.56;;;19.71;100.00
16194;BME280;8204;53.582;10.080;2022-08-05T11:39:03;98997.03;;;19.70;100.00
16194;BME280;8204;53.582;10.080;2022-08-05T11:41:33;99018.28;;;19.70;100.00
16194;BME280;8204;53.582;10.080;2022-08-05T11:44:02;99029.44;;;19.67;100.00
16194;BME280;8204;53.582;10.080;2022-08-05T11:46:32;99161.50;;;19.66;100.00
16194;BME280;8204;53.582;10.080;2022-08-05T11:48:59;99248.44;;;19.66;100.00
16194;BME280;8204;53.582;10.080;2022-08-05T11:51:27;99286.13;;;19.63;100.00
16194;BME280;8204;53.582;10.080;2022-08-05T11:53:55;99259.03;;;19.61;100.00
16194;BME280;8204;53.582;10.080;2022-08-05T11:56:22;99168.16;;;19.64;100.00
16194;BME280;8204;53.582;10.080;2022-08-05T11:58:50;99081.53;;;19.68;100.00
16194;BME280;8204;53.582;10.080;2022-08-05T12:01:18;99090.28;;;19.63;100.00
16194;BME280;8204;53.582;10.080;2022-08-05T12:03:46;99186.22;;;19.62;100.00
16194;BME280;8204;53.582;10.080;2022-08-05T12:06:19;99274.41;;;19.59;100.00
16194;BME280;8204;53.582;10.080;2022-08-05T12:08:47;99139.97;;;19.63;100.00
16194;BME280;8204;53.582;10.080;2022-08-05T12:11:17;99142.38;;;19.64;100.00
16194;BME280;8204;53.582;10.080;2022-08-05T12:13:53;99223.44;;;19.62;100.00
16194;BME280;8204;53.582;10.080;2022-08-05T12:16:20;99227.16;;;19.66;100.00
16194;BME280;8204;53.582;10.080;2022-08-05T12:18:47;99278.22;;;19.68;100.00
16194;BME280;8204;53.582;10.080;2022-08-05T12:21:15;99632.09;;;19.55;100.00
16194;BME280;8204;53.582;10.080;2022-08-05T12:23:51;99557.66;;;19.55;100.00
16194;BME280;8204;53.582;10.080;2022-08-05T12:26:17;99540.13;;;19.54;100.00
16194;BME280;8204;53.582;10.080;2022-08-05T12:28:44;99382.88;;;19.62;100.00
16194;BME280;8204;53.582;10.080;2022-08-05T12:31:13;99287.81;;;19.69;100.00
16194;BME280;8204;53.582;10.080;2022-08-05T12:33:41;99250.66;;;19.78;100.00
16194;BME280;8204;53.582;10.080;2022-08-05T12:36:08;99242.78;;;19.88;100.00
16194;BME280;8204;53.582;10.080;2022-08-05T12:38:36;99325.03;;;19.95;100.00
16194;BME280;8204;53.582;10.080;2022-08-05T12:41:06;99396.63;;;20.01;100.00
16194;BME280;8204;53.582;10.080;2022-08-05T12:43:33;99324.34;;;20.09;100.00
16194;BME280;8204;53.582;10.080;2022-08-05T12:45:59;99288.75;;;20.15;100.00
16194;BME280;8204;53.582;10.080;2022-08-05T12:48:37;99250.25;;;20.23;100.00
16194;BME280;8204;53.582;10.080;2022-08-05T12:51:14;99313.88;;;20.29;100.00
16194;BME280;8204;53.582;10.080;2022-08-05T12:53:42;99366.59;;;20.32;100.00
16194;BME280;8204;53.582;10.080;2022-08-05T12:56:17;99433.41;;;20.36;100.00
16194;BME280;8204;53.582;10.080;2022-08-05T12:58:44;99468.34;;;20.44;100.00
16194;BME280;8204;53.582;10.080;2022-08-05T13:01:13;99484.78;;;20.41;100.00
16194;BME280;8204;53.582;10.080;2022-08-05T13:03:41;99492.84;;;20.46;100.00
16194;BME280;8204;53.582;10.080;2022-08-05T13:06:10;99483.59;;;20.53;100.00
16194;BME280;8204;53.582;10.080;2022-08-05T13:08:37;99456.56;;;20.66;100.00
16194;BME280;8204;53.582;10.080;2022-08-05T13:11:04;99500.06;;;20.77;100.00
16194;BME280;8204;53.582;10.080;2022-08-05T13:13:30;99438.94;;;20.92;100.00
16194;BME280;8204;53.582;10.080;2022-08-05T13:15:57;99371.09;;;21.09;100.00
16194;BME280;8204;53.582;10.080;2022-08-05T13:18:36;99558.00;;;21.27;100.00
16194;BME280;8204;53.582;10.080;2022-08-05T13:21:04;99808.38;;;21.39;100.00
16194;BME280;8204;53.582;10.080;2022-08-05T13:23:30;99786.59;;;21.68;100.00
16194;BME280;8204;53.582;10.080;2022-08-05T13:25:57;99971.88;;;21.87;100.00
16194;BME280;8204;53.582;10.080;2022-08-05T13:28:24;99963.75;;;22.25;100.00
16194;BME280;8204;53.582;10.080;2022-08-05T13:30:51;100155.50;;;22.49;100.00
16194;BME280;8204;53.582;10.080;2022-08-05T13:33:17;100285.75;;;22.64;100.00
16194;BME280;8204;53.582;10.080;2022-08-05T13:35:44;100275.25;;;22.78;100.00
16194;BME280;8204;53.582;10.080;2022-08-05T13:38:11;100367.22;;;22.82;100.00
16194;BME280;8204;53.582;10.080;2022-08-05T13:40:38;100338.13;;;22.86;100.00
16194;BME280;8204;53.582;10.080;2022-08-05T13:43:04;100536.31;;;22.78;100.00
16194;BME280;8204;53.582;10.080;2022-08-05T13:45:32;100460.34;;;22.74;100.00
16194;BME280;8204;53.582;10.080;2022-08-05T13:47:58;100468.38;;;22.74;100.00
16194;BME280;8204;53.582;10.080;2022-08-05T13:50:24;100337.09;;;22.87;100.00
16194;BME280;8204;53.582;10.080;2022-08-05T13:52:51;100439.03;;;22.79;100.00
16194;BME280;8204;53.582;10.080;2022-08-05T13:55:19;100390.72;;;22.80;100.00
16194;BME280;8204;53.582;10.080;2022-08-05T13:57:45;100402.47;;;22.79;100.00
16194;BME280;8204;53.582;10.080;2022-08-05T14:00:12;100374.13;;;22.78;100.00
16194;BME280;8204;53.582;10.080;2022-08-05T14:02:39;100331.75;;;22.87;100.00
16194;BME280;8204;53.582;10.080;2022-08-05T14:05:06;100296.72;;;23.05;100.00
16194;BME280;8204;53.582;10.080;2022-08-05T14:07:36;100395.66;;;23.26;100.00
16194;BME280;8204;53.582;10.080;2022-08-05T14:10:03;100424.59;;;23.34;100.00
16194;BME280;8204;53.582;10.080;2022-08-05T14:12:32;100464.31;;;23.42;100.00
16194;BME280;8204;53.582;10.080;2022-08-05T14:14:58;100390.53;;;23.46;100.00
16194;BME280;8204;53.582;10.080;2022-08-05T14:17:25;100437.69;;;23.52;100.00
16194;BME280;8204;53.582;10.080;2022-08-05T14:19:52;100510.34;;;23.44;100.00
16194;BME280;8204;53.582;10.080;2022-08-05T14:22:20;100502.25;;;23.39;100.00
16194;BME280;8204;53.582;10.080;2022-08-05T14:24:46;100493.59;;;23.32;100.00
16194;BME280;8204;53.582;10.080;2022-08-05T14:27:13;100520.94;;;23.18;100.00
16194;BME280;8204;53.582;10.080;2022-08-05T14:29:41;100532.84;;;23.10;100.00
16194;BME280;8204;53.582;10.080;2022-08-05T14:32:07;100617.88;;;22.97;100.00
16194;BME280;8204;53.582;10.080;2022-08-05T14:34:34;100562.28;;;22.82;100.00
16194;BME280;8204;53.582;10.080;2022-08-05T14:37:01;100507.72;;;22.78;100.00
16194;BME280;8204;53.582;10.080;2022-08-05T14:39:27;100468.38;;;22.74;100.00
16194;BME280;8204;53.582;10.080;2022-08-05T14:41:54;100533.72;;;22.67;100.00
16194;BME280;8204;53.582;10.080;2022-08-05T14:44:20;100508.44;;;22.58;100.00
16194;BME280;8204;53.582;10.080;2022-08-05T14:46:48;100575.38;;;22.51;100.00
16194;BME280;8204;53.582;10.080;2022-08-05T14:49:15;100645.53;;;22.47;100.00
16194;BME280;8204;53.582;10.080;2022-08-05T14:51:42;100574.47;;;22.46;100.00
16194;BME280;8204;53.582;10.080;2022-08-05T14:54:08;100570.75;;;22.47;100.00